createdAt,value
2023-03-31T00:01:15.761Z,98240.84
2023-03-31T00:03:45.325Z,98231.91
2023-03-31T00:06:19.162Z,98233.91
2023-03-31T00:08:53.877Z,98235.88
2023-03-31T00:11:23.034Z,98243.88
2023-03-31T00:13:52.800Z,98227.50
2023-03-31T00:16:22.060Z,98227.69
2023-03-31T00:18:51.381Z,98222.59
2023-03-31T00:21:34.080Z,98225.31
2023-03-31T00:24:04.103Z,98232.31
2023-03-31T00:26:34.486Z,98233.63
2023-03-31T00:29:05.328Z,98222.94
2023-03-31T00:31:33.822Z,98221.25
2023-03-31T00:34:02.349Z,98219.19
2023-03-31T00:36:31.217Z,98215.97
2023-03-31T00:39:02.694Z,98216.19
2023-03-31T00:41:31.735Z,98219.56
2023-03-31T00:44:09.890Z,98215.00
2023-03-31T00:46:42.591Z,98212.50
2023-03-31T00:49:18.321Z,98217.69
2023-03-31T00:51:48.234Z,98209.88
2023-03-31T00:54:19.762Z,98211.69
2023-03-31T00:56:53.346Z,98206.38
2023-03-31T00:59:29.271Z,98206.38
2023-03-31T01:02:02.992Z,98200.97
2023-03-31T01:04:36.721Z,98199.84
2023-03-31T01:07:12.940Z,98204.91
2023-03-31T01:09:42.221Z,98199.91
2023-03-31T01:12:13.935Z,98199.03
2023-03-31T01:14:43.727Z,98197.38
2023-03-31T01:17:12.028Z,98193.50
2023-03-31T01:19:54.751Z,98191.09
2023-03-31T01:22:49.658Z,98184.34
2023-03-31T01:25:48.072Z,98190.16
2023-03-31T01:28:28.122Z,98182.06
2023-03-31T01:31:32.005Z,98177.00
2023-03-31T01:35:04.154Z,98169.53
2023-03-31T01:38:20.621Z,98158.69
2023-03-31T01:41:16.217Z,98157.50
2023-03-31T01:43:54.852Z,98155.81
2023-03-31T01:46:31.970Z,98138.47
2023-03-31T01:49:07.328Z,98141.84
2023-03-31T01:51:39.955Z,98139.66
2023-03-31T01:54:17.887Z,98132.53
2023-03-31T01:56:51.504Z,98133.50
2023-03-31T01:59:27.434Z,98124.63
2023-03-31T02:02:00.604Z,98118.84
2023-03-31T02:04:34.352Z,98118.31
2023-03-31T02:07:09.378Z,98116.03
2023-03-31T02:09:42.740Z,98112.00
2023-03-31T02:12:13.643Z,98109.53
2023-03-31T02:14:46.844Z,98101.59
2023-03-31T02:17:20.733Z,98090.88
2023-03-31T02:19:53.195Z,98083.69
2023-03-31T02:22:24.099Z,98080.75
2023-03-31T02:24:54.496Z,98072.41
2023-03-31T02:27:28.562Z,98068.56
2023-03-31T02:29:58.310Z,98057.94
2023-03-31T02:32:33.635Z,98053.56
2023-03-31T02:35:02.599Z,98054.91
2023-03-31T02:37:32.418Z,98036.13
2023-03-31T02:40:06.508Z,98030.16
2023-03-31T02:42:36.570Z,98022.00
2023-03-31T02:45:07.111Z,98018.94
2023-03-31T02:47:35.932Z,98015.28
2023-03-31T02:50:06.780Z,98013.66
2023-03-31T02:52:52.896Z,98004.13
2023-03-31T02:55:39.564Z,98004.69
2023-03-31T02:58:50.175Z,98004.47
2023-03-31T03:01:34.279Z,97997.31
2023-03-31T03:04:12.746Z,97998.50
2023-03-31T03:06:54.095Z,97993.47
2023-03-31T03:09:36.633Z,97998.63
2023-03-31T03:12:14.941Z,97983.25
2023-03-31T03:14:48.861Z,97988.50
2023-03-31T03:17:22.457Z,97980.44
2023-03-31T03:19:54.950Z,97983.34
2023-03-31T03:22:23.172Z,97971.22
2023-03-31T03:24:51.717Z,97965.25
2023-03-31T03:27:20.166Z,97956.09
2023-03-31T03:29:48.394Z,97946.78
2023-03-31T03:32:16.950Z,97944.16
2023-03-31T03:34:46.959Z,97926.59
2023-03-31T03:37:15.305Z,97917.34
2023-03-31T03:39:43.685Z,97906.81
2023-03-31T03:42:12.015Z,97896.91
2023-03-31T03:44:40.318Z,97879.38
2023-03-31T03:47:08.530Z,97878.34
2023-03-31T03:49:36.850Z,97876.22
2023-03-31T03:52:09.293Z,97886.41
2023-03-31T03:54:37.703Z,97895.44
2023-03-31T03:57:06.830Z,97898.56
2023-03-31T03:59:34.986Z,97910.81
2023-03-31T04:02:03.956Z,97909.47
2023-03-31T04:04:32.155Z,97901.56
2023-03-31T04:07:01.012Z,97890.09
2023-03-31T04:09:31.290Z,97887.97
2023-03-31T04:11:59.604Z,97885.53
2023-03-31T04:14:27.692Z,97876.66
2023-03-31T04:16:59.760Z,97887.88
2023-03-31T04:19:28.458Z,97874.94
2023-03-31T04:22:03.133Z,97867.13
2023-03-31T04:24:38.965Z,97859.34
2023-03-31T04:27:08.364Z,97852.72
2023-03-31T04:29:37.447Z,97826.25
2023-03-31T04:32:06.082Z,97834.50
2023-03-31T04:34:37.370Z,97826.50
2023-03-31T04:37:05.599Z,97812.75
2023-03-31T04:39:36.523Z,97816.38
2023-03-31T04:42:05.217Z,97831.16
2023-03-31T04:44:33.282Z,97836.16
2023-03-31T04:47:03.384Z,97828.78
2023-03-31T04:49:33.747Z,97826.13
2023-03-31T04:52:02.428Z,97829.53
2023-03-31T04:54:30.916Z,97822.78
2023-03-31T04:57:01.040Z,97821.94
2023-03-31T04:59:29.904Z,97822.78
2023-03-31T05:01:58.518Z,97814.63
2023-03-31T05:04:26.791Z,97809.91
2023-03-31T05:06:55.491Z,97812.19
2023-03-31T05:09:23.881Z,97805.22
2023-03-31T05:11:52.041Z,97801.34
2023-03-31T05:14:22.301Z,97790.00
2023-03-31T05:16:51.037Z,97785.59
2023-03-31T05:19:19.155Z,97782.00
2023-03-31T05:21:47.515Z,97763.97
2023-03-31T05:24:15.979Z,97761.34
2023-03-31T05:26:48.588Z,97761.25
2023-03-31T05:29:17.314Z,97763.34
2023-03-31T05:31:47.164Z,97765.41
2023-03-31T05:34:16.091Z,97762.09
2023-03-31T05:36:44.927Z,97750.94
2023-03-31T05:39:13.077Z,97745.88
2023-03-31T05:41:41.825Z,97744.06
2023-03-31T05:44:10.074Z,97740.56
2023-03-31T05:46:38.258Z,97739.81
2023-03-31T05:49:08.276Z,97740.69
2023-03-31T05:51:36.630Z,97746.56
2023-03-31T05:54:06.576Z,97746.13
2023-03-31T05:56:37.652Z,97743.78
2023-03-31T05:59:05.888Z,97738.28
2023-03-31T06:01:34.628Z,97752.88
2023-03-31T06:04:03.091Z,97751.28
2023-03-31T06:06:37.207Z,97742.09
2023-03-31T06:09:06.524Z,97734.09
2023-03-31T06:11:34.842Z,97735.25
2023-03-31T06:14:03.597Z,97730.34
2023-03-31T06:16:31.947Z,97732.28
2023-03-31T06:19:00.068Z,97726.00
2023-03-31T06:21:28.518Z,97709.13
2023-03-31T06:24:00.469Z,97707.47
2023-03-31T06:26:31.241Z,97706.81
2023-03-31T06:29:02.487Z,97695.22
2023-03-31T06:31:32.458Z,97692.25
2023-03-31T06:34:00.770Z,97689.22
2023-03-31T06:36:29.000Z,97681.34
2023-03-31T06:38:58.666Z,97674.97
2023-03-31T06:41:26.948Z,97676.63
2023-03-31T06:43:55.026Z,97670.97
2023-03-31T06:46:23.544Z,97672.00
2023-03-31T06:48:52.062Z,97655.84
2023-03-31T06:51:20.596Z,97647.97
2023-03-31T06:53:48.784Z,97640.81
2023-03-31T06:56:18.758Z,97641.38
2023-03-31T06:58:47.098Z,97631.59
2023-03-31T07:01:15.345Z,97640.16
2023-03-31T07:03:43.592Z,97639.00
2023-03-31T07:06:11.759Z,97644.94
2023-03-31T07:08:39.918Z,97653.88
2023-03-31T07:11:11.661Z,97650.25
2023-03-31T07:13:41.662Z,97647.25
2023-03-31T07:16:11.044Z,97639.56
2023-03-31T07:18:42.475Z,97640.22
2023-03-31T07:21:11.173Z,97628.81
2023-03-31T07:23:40.433Z,97634.13
2023-03-31T07:26:09.142Z,97635.81
2023-03-31T07:28:37.524Z,97635.66
2023-03-31T07:31:14.214Z,97610.09
2023-03-31T07:33:42.643Z,97596.16
2023-03-31T07:36:13.210Z,97578.06
2023-03-31T07:38:44.511Z,97554.66
2023-03-31T07:41:13.768Z,97540.75
2023-03-31T07:43:42.384Z,97546.59
2023-03-31T07:46:18.516Z,97544.94
2023-03-31T07:48:47.999Z,97557.19
2023-03-31T07:51:17.615Z,97557.31
2023-03-31T07:53:49.526Z,97546.38
2023-03-31T07:56:18.455Z,97539.81
2023-03-31T07:58:47.638Z,97534.13
2023-03-31T08:01:20.098Z,97523.69
2023-03-31T08:03:49.772Z,97529.16
2023-03-31T08:06:20.095Z,97524.13
2023-03-31T08:08:50.038Z,97510.19
2023-03-31T08:11:20.814Z,97502.53
2023-03-31T08:13:49.474Z,97495.94
2023-03-31T08:16:22.731Z,97495.94
2023-03-31T08:18:54.252Z,97505.03
2023-03-31T08:21:24.841Z,97498.50
2023-03-31T08:23:56.910Z,97502.25
2023-03-31T08:26:27.999Z,97498.50
2023-03-31T08:28:59.490Z,97489.69
2023-03-31T08:31:30.582Z,97485.09
2023-03-31T08:33:59.603Z,97486.91
2023-03-31T08:36:29.679Z,97481.03
2023-03-31T08:38:58.510Z,97487.16
2023-03-31T08:41:37.760Z,97475.97
2023-03-31T08:44:12.674Z,97478.47
2023-03-31T08:46:43.701Z,97478.56
2023-03-31T08:49:18.805Z,97483.88
2023-03-31T08:51:50.826Z,97465.44
2023-03-31T08:54:33.141Z,97473.66
2023-03-31T08:57:04.015Z,97464.91
2023-03-31T08:59:36.752Z,97457.16
2023-03-31T09:02:21.377Z,97456.22
2023-03-31T09:05:09.801Z,97442.91
2023-03-31T09:07:48.399Z,97440.59
2023-03-31T09:10:29.892Z,97441.09
2023-03-31T09:13:04.384Z,97429.59
2023-03-31T09:15:40.142Z,97418.94
2023-03-31T09:18:20.077Z,97423.69
2023-03-31T09:20:52.926Z,97420.56
2023-03-31T09:23:28.849Z,97415.09
2023-03-31T09:26:04.495Z,97401.94
2023-03-31T09:28:36.712Z,97402.84
2023-03-31T09:31:09.503Z,97387.94
2023-03-31T09:33:44.468Z,97390.66
2023-03-31T09:36:17.345Z,97392.72
2023-03-31T09:38:47.469Z,97378.56
2023-03-31T09:41:17.318Z,97379.13
2023-03-31T09:43:46.422Z,97370.63
2023-03-31T09:46:21.114Z,97368.88
2023-03-31T09:48:59.905Z,97367.50
2023-03-31T09:51:32.739Z,97368.44
2023-03-31T09:54:08.085Z,97357.97
2023-03-31T09:56:49.071Z,97361.19
2023-03-31T09:59:18.989Z,97360.00
2023-03-31T10:01:48.823Z,97360.31
2023-03-31T10:04:23.939Z,97354.50
2023-03-31T10:06:53.731Z,97362.47
2023-03-31T10:09:26.642Z,97349.41
2023-03-31T10:11:58.030Z,97339.53
2023-03-31T10:14:29.318Z,97340.16
2023-03-31T10:17:01.161Z,97354.19
2023-03-31T10:19:34.361Z,97337.38
2023-03-31T10:22:05.135Z,97337.41
2023-03-31T10:24:41.181Z,97335.63
2023-03-31T10:27:20.720Z,97328.78
2023-03-31T10:29:49.753Z,97325.59
2023-03-31T10:32:25.959Z,97314.41
2023-03-31T10:35:00.856Z,97316.19
2023-03-31T10:37:31.885Z,97315.97
2023-03-31T10:40:01.816Z,97307.09
2023-03-31T10:42:30.359Z,97310.97
2023-03-31T10:45:26.079Z,97324.22
2023-03-31T10:48:02.938Z,97311.41
2023-03-31T10:50:34.765Z,97314.28
2023-03-31T10:53:05.404Z,97296.88
2023-03-31T10:55:41.264Z,97302.25
2023-03-31T10:58:26.863Z,97302.03
2023-03-31T11:01:07.462Z,97325.16
2023-03-31T11:04:03.453Z,97314.94
2023-03-31T11:06:41.286Z,97312.97
2023-03-31T11:09:21.495Z,97309.16
2023-03-31T11:12:00.240Z,97310.59
2023-03-31T11:14:40.976Z,97315.78
2023-03-31T11:17:21.435Z,97322.03
2023-03-31T11:20:02.575Z,97312.41
2023-03-31T11:22:39.341Z,97321.72
2023-03-31T11:25:23.032Z,97311.63
2023-03-31T11:28:01.569Z,97332.38
2023-03-31T11:30:33.949Z,97335.72
2023-03-31T11:33:22.089Z,97321.09
2023-03-31T11:36:05.514Z,97331.00
2023-03-31T11:41:39.074Z,97321.38
2023-03-31T11:44:12.219Z,97322.84
2023-03-31T11:46:45.564Z,97320.19
2023-03-31T11:49:21.543Z,97319.34
2023-03-31T11:51:54.880Z,97309.66
2023-03-31T11:54:29.891Z,97308.56
2023-03-31T11:57:06.104Z,97313.34
2023-03-31T11:59:40.630Z,97310.84
2023-03-31T12:02:18.582Z,97320.53
2023-03-31T12:04:52.345Z,97318.38
2023-03-31T12:07:25.847Z,97316.16
2023-03-31T12:10:06.178Z,97303.38
2023-03-31T12:12:45.276Z,97305.47
2023-03-31T12:15:22.027Z,97296.50
2023-03-31T12:17:57.760Z,97298.50
2023-03-31T12:20:33.725Z,97297.28
2023-03-31T12:23:06.010Z,97297.63
2023-03-31T12:25:46.900Z,97291.44
2023-03-31T12:28:20.780Z,97279.09
2023-03-31T12:30:50.234Z,97281.13
2023-03-31T12:33:24.053Z,97279.66
2023-03-31T12:36:08.037Z,97279.13
2023-03-31T12:38:54.947Z,97274.09
2023-03-31T12:41:30.061Z,97251.03
2023-03-31T12:44:30.733Z,97268.63
2023-03-31T12:47:25.646Z,97271.34
2023-03-31T12:50:05.228Z,97268.09
2023-03-31T12:52:41.231Z,97253.72
2023-03-31T12:55:30.438Z,97245.66
2023-03-31T12:58:38.259Z,97235.75
2023-03-31T13:01:12.196Z,97245.31
2023-03-31T13:03:47.870Z,97235.56
2023-03-31T13:07:04.734Z,97239.00
2023-03-31T13:09:48.521Z,97230.94
2023-03-31T13:12:19.764Z,97216.09
2023-03-31T13:14:51.829Z,97212.34
2023-03-31T13:17:29.060Z,97220.69
2023-03-31T13:20:17.673Z,97228.53
2023-03-31T13:22:48.676Z,97224.66
2023-03-31T13:25:42.897Z,97217.16
2023-03-31T13:28:16.453Z,97227.44
2023-03-31T13:30:50.867Z,97224.75
2023-03-31T13:33:29.455Z,97215.88
2023-03-31T13:36:22.340Z,97216.50
2023-03-31T13:39:04.715Z,97216.44
2023-03-31T13:41:46.501Z,97209.94
2023-03-31T13:44:39.531Z,97205.47
2023-03-31T13:47:32.516Z,97202.81
2023-03-31T13:50:48.280Z,97194.50
2023-03-31T13:53:38.175Z,97193.88
2023-03-31T13:56:17.270Z,97196.53
2023-03-31T13:59:07.550Z,97193.53
2023-03-31T14:02:05.165Z,97205.31
2023-03-31T14:05:08.050Z,97204.34
2023-03-31T14:07:43.936Z,97199.72
2023-03-31T14:10:24.580Z,97199.03
2023-03-31T14:12:54.558Z,97187.41
2023-03-31T14:15:23.228Z,97190.69
2023-03-31T14:17:51.760Z,97194.34
2023-03-31T14:20:30.315Z,97182.34
2023-03-31T14:23:10.651Z,97177.34
2023-03-31T14:25:50.084Z,97165.97
2023-03-31T14:28:36.544Z,97177.19
2023-03-31T14:31:21.406Z,97173.81
2023-03-31T14:34:08.682Z,97177.03
2023-03-31T14:36:47.008Z,97184.00
2023-03-31T14:39:23.558Z,97191.03
2023-03-31T14:41:54.828Z,97169.75
2023-03-31T14:44:23.235Z,97166.13
2023-03-31T14:46:52.901Z,97154.78
2023-03-31T14:49:23.721Z,97174.41
2023-03-31T14:51:54.605Z,97156.28
2023-03-31T14:54:26.081Z,97156.44
2023-03-31T14:56:56.830Z,97139.50
2023-03-31T14:59:29.679Z,97142.13
2023-03-31T15:02:00.027Z,97140.13
2023-03-31T15:04:41.885Z,97139.13
2023-03-31T15:07:12.046Z,97134.84
2023-03-31T15:09:46.417Z,97137.00
2023-03-31T15:12:16.698Z,97148.00
2023-03-31T15:14:49.317Z,97138.31
2023-03-31T15:17:22.557Z,97144.50
2023-03-31T15:19:56.162Z,97145.31
2023-03-31T15:22:26.183Z,97139.50
2023-03-31T15:24:58.628Z,97156.28
2023-03-31T15:27:37.477Z,97160.09
2023-03-31T15:30:09.133Z,97153.91
2023-03-31T15:32:40.360Z,97159.28
2023-03-31T15:35:22.136Z,97160.75
2023-03-31T15:37:53.800Z,97156.13
2023-03-31T15:40:27.366Z,97167.25
2023-03-31T15:43:06.943Z,97178.53
2023-03-31T15:45:51.692Z,97199.06
2023-03-31T15:48:24.172Z,97220.03
2023-03-31T15:50:53.430Z,97209.16
2023-03-31T15:53:29.206Z,97181.16
2023-03-31T15:56:01.880Z,97165.91
2023-03-31T15:58:55.877Z,97160.31
2023-03-31T16:01:29.473Z,97162.78
2023-03-31T16:03:58.342Z,97162.72
2023-03-31T16:06:38.499Z,97171.19
2023-03-31T16:09:09.713Z,97164.19
2023-03-31T16:11:43.763Z,97160.53
2023-03-31T16:14:18.153Z,97173.03
2023-03-31T16:16:54.222Z,97177.84
2023-03-31T16:19:26.188Z,97177.75
2023-03-31T16:21:56.618Z,97177.19
2023-03-31T16:24:31.906Z,97181.19
2023-03-31T16:27:06.396Z,97184.38
2023-03-31T16:29:36.085Z,97192.50
2023-03-31T16:32:13.596Z,97189.69
2023-03-31T16:34:58.084Z,97192.28
2023-03-31T16:37:26.874Z,97194.41
2023-03-31T16:39:55.341Z,97189.69
2023-03-31T16:42:28.114Z,97194.53
2023-03-31T16:45:12.605Z,97192.34
2023-03-31T16:47:45.868Z,97197.50
2023-03-31T16:50:15.879Z,97198.72
2023-03-31T16:52:44.440Z,97193.19
2023-03-31T16:55:12.895Z,97190.91
2023-03-31T16:57:42.898Z,97192.94
2023-03-31T17:00:13.317Z,97194.09
2023-03-31T17:02:41.755Z,97188.09
2023-03-31T17:05:13.467Z,97193.50
2023-03-31T17:07:41.912Z,97195.91
2023-03-31T17:10:13.032Z,97194.75
2023-03-31T17:12:42.838Z,97192.84
2023-03-31T17:15:12.886Z,97185.53
2023-03-31T17:17:41.090Z,97189.63
2023-03-31T17:20:11.558Z,97206.50
2023-03-31T17:22:40.191Z,97190.22
2023-03-31T17:25:09.605Z,97185.88
2023-03-31T17:27:38.032Z,97200.53
2023-03-31T17:30:10.072Z,97197.19
2023-03-31T17:32:38.491Z,97204.09
2023-03-31T17:35:08.487Z,97203.84
2023-03-31T17:37:37.448Z,97214.97
2023-03-31T17:40:06.308Z,97214.50
2023-03-31T17:42:34.608Z,97219.06
2023-03-31T17:45:05.193Z,97216.72
2023-03-31T17:47:35.302Z,97227.91
2023-03-31T17:50:03.786Z,97233.22
2023-03-31T17:52:32.088Z,97236.84
2023-03-31T17:55:00.244Z,97239.41
2023-03-31T17:57:28.533Z,97234.47
2023-03-31T17:59:57.084Z,97235.91
2023-03-31T18:02:26.739Z,97237.28
2023-03-31T18:04:56.446Z,97241.47
2023-03-31T18:07:24.720Z,97242.88
2023-03-31T18:09:53.373Z,97242.09
2023-03-31T18:12:21.692Z,97233.84
2023-03-31T18:14:50.883Z,97248.53
2023-03-31T18:17:19.559Z,97255.66
2023-03-31T18:19:47.821Z,97255.50
2023-03-31T18:22:17.801Z,97259.41
2023-03-31T18:24:46.063Z,97263.59
2023-03-31T18:27:15.017Z,97258.97
2023-03-31T18:29:43.707Z,97274.31
2023-03-31T18:32:12.678Z,97268.38
2023-03-31T18:34:43.734Z,97269.16
2023-03-31T18:37:12.748Z,97257.06
2023-03-31T18:39:43.845Z,97263.03
2023-03-31T18:42:12.307Z,97256.63
2023-03-31T18:44:40.566Z,97264.69
2023-03-31T18:47:09.046Z,97264.22
2023-03-31T18:49:37.150Z,97264.59
2023-03-31T18:52:05.757Z,97267.34
2023-03-31T18:54:34.687Z,97263.75
2023-03-31T18:57:04.659Z,97275.50
2023-03-31T18:59:32.840Z,97276.13
2023-03-31T19:02:01.055Z,97278.66
2023-03-31T19:04:30.346Z,97289.16
2023-03-31T19:06:58.696Z,97283.41
2023-03-31T19:09:29.966Z,97287.59
2023-03-31T19:11:58.662Z,97288.53
2023-03-31T19:14:28.542Z,97292.84
2023-03-31T19:16:56.970Z,97299.06
2023-03-31T19:19:25.574Z,97298.06
2023-03-31T19:21:54.787Z,97289.00
2023-03-31T19:24:24.528Z,97297.72
2023-03-31T19:26:52.682Z,97298.16
2023-03-31T19:29:21.325Z,97289.00
2023-03-31T19:31:52.524Z,97288.22
2023-03-31T19:34:20.996Z,97287.66
2023-03-31T19:36:49.456Z,97288.78
2023-03-31T19:39:18.223Z,97290.75
2023-03-31T19:41:48.055Z,97291.28
2023-03-31T19:44:17.636Z,97287.97
2023-03-31T19:46:45.932Z,97306.81
2023-03-31T19:49:15.468Z,97300.94
2023-03-31T19:51:43.838Z,97298.25
2023-03-31T19:54:12.086Z,97300.16
2023-03-31T19:56:42.253Z,97287.69
2023-03-31T19:59:14.305Z,97294.72
2023-03-31T20:01:42.977Z,97286.22
2023-03-31T20:04:12.319Z,97287.75
2023-03-31T20:06:44.050Z,97285.81
2023-03-31T20:09:12.963Z,97286.53
2023-03-31T20:11:43.638Z,97287.75
2023-03-31T20:14:12.142Z,97289.44
2023-03-31T20:16:40.232Z,97290.69
2023-03-31T20:19:09.415Z,97289.19
2023-03-31T20:21:39.228Z,97292.59
2023-03-31T20:24:20.736Z,97305.84
2023-03-31T20:26:49.029Z,97311.16
2023-03-31T20:29:18.186Z,97317.44
2023-03-31T20:31:46.890Z,97312.41
2023-03-31T20:34:17.461Z,97299.38
2023-03-31T20:36:49.208Z,97311.63
2023-03-31T20:39:20.446Z,97308.69
2023-03-31T20:41:50.176Z,97307.63
2023-03-31T20:44:19.341Z,97290.63
2023-03-31T20:46:47.741Z,97297.59
2023-03-31T20:49:16.169Z,97295.94
2023-03-31T20:51:45.566Z,97287.84
2023-03-31T20:54:13.720Z,97294.72
2023-03-31T20:56:44.205Z,97294.44
2023-03-31T20:59:15.096Z,97292.09
2023-03-31T21:01:45.341Z,97298.47
2023-03-31T21:04:14.174Z,97292.94
2023-03-31T21:06:44.124Z,97298.47
2023-03-31T21:09:15.720Z,97301.56
2023-03-31T21:11:45.995Z,97305.31
2023-03-31T21:14:15.979Z,97299.59
2023-03-31T21:16:46.343Z,97290.41
2023-03-31T21:19:14.741Z,97303.75
2023-03-31T21:21:43.460Z,97309.06
2023-03-31T21:24:13.228Z,97304.91
2023-03-31T21:26:41.652Z,97298.22
2023-03-31T21:29:12.004Z,97304.91
2023-03-31T21:31:41.772Z,97301.72
2023-03-31T21:34:11.130Z,97302.94
2023-03-31T21:36:39.225Z,97301.72
2023-03-31T21:39:09.823Z,97306.16
2023-03-31T21:41:40.912Z,97297.22
2023-03-31T21:44:10.744Z,97290.69
2023-03-31T21:46:41.299Z,97295.59
2023-03-31T21:49:11.328Z,97286.66
2023-03-31T21:51:39.572Z,97290.84
2023-03-31T21:54:09.431Z,97283.88
2023-03-31T21:56:38.069Z,97289.69
2023-03-31T21:59:06.684Z,97281.75
2023-03-31T22:01:36.528Z,97284.16
2023-03-31T22:04:06.125Z,97287.50
2023-03-31T22:06:34.708Z,97288.88
2023-03-31T22:09:02.801Z,97283.03
2023-03-31T22:11:30.787Z,97280.78
2023-03-31T22:13:59.159Z,97280.63
2023-03-31T22:16:27.948Z,97271.78
2023-03-31T22:18:59.251Z,97272.16
2023-03-31T22:21:30.867Z,97278.16
2023-03-31T22:24:01.096Z,97266.88
2023-03-31T22:26:31.279Z,97269.50
2023-03-31T22:29:00.038Z,97270.50
2023-03-31T22:31:28.925Z,97266.88
2023-03-31T22:33:59.351Z,97267.31
2023-03-31T22:36:27.970Z,97276.78
2023-03-31T22:38:56.355Z,97274.66
2023-03-31T22:41:25.312Z,97274.81
2023-03-31T22:43:53.461Z,97275.38
2023-03-31T22:46:22.153Z,97268.97
2023-03-31T22:48:51.215Z,97285.09
2023-03-31T22:51:23.681Z,97274.81
2023-03-31T22:53:54.139Z,97280.94
2023-03-31T22:56:23.283Z,97279.81
2023-03-31T22:58:52.771Z,97276.78
2023-03-31T23:01:22.146Z,97274.53
2023-03-31T23:03:52.069Z,97278.88
2023-03-31T23:06:22.071Z,97280.81
2023-03-31T23:08:50.433Z,97282.22
2023-03-31T23:11:19.076Z,97279.84
2023-03-31T23:13:49.123Z,97287.66
2023-03-31T23:16:19.696Z,97281.78
2023-03-31T23:18:52.758Z,97275.13
2023-03-31T23:21:26.783Z,97279.16
2023-03-31T23:23:57.098Z,97276.25
2023-03-31T23:26:28.004Z,97288.91
2023-03-31T23:28:57.538Z,97288.19
2023-03-31T23:31:28.413Z,97284.03
2023-03-31T23:33:57.387Z,97285.56
2023-03-31T23:36:27.777Z,97289.72
2023-03-31T23:38:58.799Z,97272.75
2023-03-31T23:41:27.669Z,97284.19
2023-03-31T23:43:58.518Z,97282.38
2023-03-31T23:46:29.120Z,97272.47
2023-03-31T23:48:57.589Z,97272.34
2023-03-31T23:51:28.019Z,97276.81
2023-03-31T23:53:56.570Z,97272.63
2023-03-31T23:56:27.218Z,97269.56
2023-03-31T23:58:56.068Z,97275.00
